Time;durP1;ratioP1;P1;durP2;ratioP2;P2;SDS_P1;SDS_P2;PMS_P1;PMS_P2;Temp;Humidity;BMP_temperature;BMP_pressure;BME280_temperature;BME280_humidity;BME280_pressure;Samples;Min_cycle;Max_cycle;Signal;HPM_P1;HPM_P2
2022/02/11 00:06:04;;;;;;;16.63;2.90;;;2.20;99.90;;;0.58;100.00;101230.44;4970223;28;20512;-82
2022/02/11 00:08:28;;;;;;;20.80;2.88;;;2.20;99.90;;;0.56;100.00;101222.69;4975707;28;20041;-82
2022/02/11 00:10:54;;;;;;;30.45;2.67;;;2.20;99.90;;;0.56;100.00;101196.75;4999227;28;20055;-80
2022/02/11 00:13:20;;;;;;;30.83;3.08;;;2.20;99.90;;;0.56;100.00;101204.53;4923864;28;20116;-76
2022/02/11 00:15:48;;;;;;;31.35;3.15;;;2.30;99.90;;;0.58;100.00;101200.22;4929186;28;20040;-77
2022/02/11 00:18:16;;;;;;;23.38;3.63;;;2.20;99.90;;;0.59;100.00;101188.97;4939851;28;20034;-76
2022/02/11 00:20:52;;;;;;;38.15;3.00;;;2.30;99.90;;;0.64;100.00;101206.25;4970418;28;20439;-76
2022/02/11 00:23:22;;;;;;;23.02;2.65;;;2.30;99.90;;;0.67;100.00;101206.25;4983860;28;21144;-76
2022/02/11 00:25:58;;;;;;;24.10;2.53;;;2.30;99.90;;;0.69;100.00;101202.84;4972163;28;20113;-77
2022/02/11 00:33:51;;;;;;;25.95;2.33;;;2.30;99.90;;;0.68;100.00;101213.19;4943492;28;20085;-76
2022/02/11 00:36:18;;;;;;;29.17;3.20;;;2.30;99.90;;;0.64;100.00;101221.81;4951060;28;20153;-80
2022/02/11 00:39:49;;;;;;;26.67;2.90;;;2.30;99.90;;;0.63;100.00;101220.06;4972820;28;20477;-77
2022/02/11 00:45:32;;;;;;;20.88;2.05;;;2.20;99.90;;;0.57;100.00;101216.63;4983767;28;20623;-78
2022/02/11 01:06:09;;;;;;;19.50;2.20;;;2.30;99.90;;;0.74;100.00;101202.84;4965246;28;20026;-80
2022/02/11 01:08:40;;;;;;;29.00;2.83;;;2.30;99.90;;;0.76;100.00;101206.31;4927306;28;20026;-80
2022/02/11 01:11:10;;;;;;;38.40;3.33;;;2.30;99.90;;;0.74;100.00;101198.50;5028656;28;20037;-79
2022/02/11 01:13:36;;;;;;;32.53;3.65;;;2.30;99.90;;;0.77;100.00;101202.81;4951115;28;20531;-80
2022/02/11 01:16:08;;;;;;;31.80;2.67;;;2.40;99.90;;;0.75;100.00;101204.56;5005732;28;20030;-80
2022/02/11 01:18:34;;;;;;;30.23;2.88;;;2.40;99.90;;;0.76;100.00;101199.38;4971486;28;20034;-80
2022/02/11 01:21:02;;;;;;;30.73;3.15;;;2.40;99.90;;;0.78;100.00;101207.16;4933875;28;20041;-79
2022/02/11 01:26:17;;;;;;;31.75;3.20;;;2.40;99.90;;;0.80;100.00;101205.44;4972822;28;20077;-80
2022/02/11 01:29:26;;;;;;;40.90;3.60;;;2.40;99.90;;;0.78;100.00;101199.38;4943579;28;20442;-81
2022/02/11 01:34:24;;;;;;;33.67;3.50;;;2.40;99.90;;;0.73;100.00;101201.94;4947405;28;20099;-81
2022/02/11 02:11:13;;;;;;;34.03;3.88;;;2.30;99.90;;;0.65;100.00;101192.44;4992145;28;20140;-78
2022/02/11 02:17:18;;;;;;;32.75;3.38;;;2.30;99.90;;;0.60;100.00;101190.72;4980917;28;20111;-78
2022/02/11 02:31:00;;;;;;;37.83;4.22;;;2.20;99.90;;;0.59;100.00;101188.97;4962468;28;20123;-77
2022/02/11 02:57:35;;;;;;;34.45;4.10;;;2.20;99.90;;;0.52;100.00;101170.81;4954650;28;20040;-77
2022/02/11 03:48:36;;;;;;;;;;;2.00;99.90;;;0.14;100.00;101156.91;4982628;28;20510;-79
2022/02/11 04:20:13;;;;;;;46.40;6.00;;;1.70;99.90;;;-0.06;100.00;101176.69;4924738;28;20052;-79
2022/02/11 04:53:04;;;;;;;33.45;6.32;;;1.50;99.90;;;-0.25;100.00;101178.34;4927641;28;20083;-79
2022/02/11 04:53:14;;;;;;;46.20;6.95;;;1.30;99.90;;;-0.40;100.00;101184.28;4979724;28;20082;-79
2022/02/11 04:55:38;;;;;;;46.38;7.15;;;1.30;99.90;;;-0.40;100.00;101179.13;4953953;28;20040;-80
2022/02/11 05:00:49;;;;;;;42.28;7.10;;;1.30;99.90;;;-0.40;100.00;101181.69;4965883;28;20056;-80
2022/02/11 05:03:20;;;;;;;24.77;7.22;;;1.30;99.90;;;-0.45;100.00;101179.09;4957373;28;20542;-80
2022/02/11 05:05:49;;;;;;;43.53;8.57;;;1.30;99.90;;;-0.44;100.00;101195.47;4934352;28;20025;-79
2022/02/11 05:08:26;;;;;;;35.90;7.18;;;1.30;99.90;;;-0.44;100.00;101192.88;4964698;28;20021;-79
2022/02/11 05:10:54;;;;;;;55.70;8.20;;;1.30;99.90;;;-0.46;100.00;101189.41;4970373;28;20036;-79
2022/02/11 05:13:22;;;;;;;31.73;7.35;;;1.30;99.90;;;-0.45;100.00;101186.00;4966227;28;20032;-80
2022/02/11 05:15:54;;;;;;;55.40;7.80;;;1.30;99.90;;;-0.43;100.00;101189.47;4929081;28;20021;-81
2022/02/11 05:18:20;;;;;;;44.05;8.20;;;1.30;99.90;;;-0.41;100.00;101192.91;4931595;28;20052;-80
2022/02/11 05:20:47;;;;;;;47.10;10.02;;;1.30;99.90;;;-0.40;100.00;101186.88;4917933;28;20585;-81
2022/02/11 05:23:17;;;;;;;47.50;9.50;;;1.30;99.90;;;-0.40;100.00;101186.03;4968018;28;20514;-80
2022/02/11 05:25:46;;;;;;;39.38;9.32;;;1.30;99.90;;;-0.39;100.00;101193.75;4961571;28;20112;-80
2022/02/11 05:28:13;;;;;;;54.17;8.55;;;1.30;99.90;;;-0.39;100.00;101192.91;4977657;28;20037;-80
2022/02/11 05:30:41;;;;;;;48.50;9.15;;;1.30;99.90;;;-0.39;100.00;101192.91;4946240;28;20497;-80
2022/02/11 05:33:13;;;;;;;48.58;8.63;;;1.30;99.90;;;-0.37;100.00;101196.38;4944808;28;20033;-81
2022/02/11 05:35:39;;;;;;;47.55;9.13;;;1.30;99.90;;;-0.40;100.00;101191.19;4913019;28;20509;-80
2022/02/11 05:38:06;;;;;;;45.45;9.57;;;1.30;99.90;;;-0.40;100.00;101192.06;4947235;28;20037;-80
2022/02/11 05:40:34;;;;;;;35.83;8.27;;;1.20;99.90;;;-0.43;100.00;101194.63;4938437;28;20036;-80
2022/02/11 05:43:08;;;;;;;52.78;9.38;;;1.30;99.90;;;-0.46;100.00;101189.41;4923137;28;20032;-81
2022/02/11 05:45:34;;;;;;;35.78;9.55;;;1.20;99.90;;;-0.47;100.00;101196.31;4937765;28;20025;-80
2022/02/11 05:48:00;;;;;;;46.55;10.25;;;1.20;99.90;;;-0.48;100.00;101194.56;4922528;28;20022;-80
2022/02/11 05:50:26;;;;;;;51.97;10.55;;;1.30;99.90;;;-0.45;100.00;101197.19;4915490;28;20053;-81
2022/02/11 05:52:57;;;;;;;50.45;10.57;;;1.20;99.90;;;-0.48;100.00;101196.31;4975199;28;20111;-82
2022/02/11 05:55:23;;;;;;;59.15;10.75;;;1.20;99.90;;;-0.50;100.00;101187.66;4978650;28;20033;-81
2022/02/11 05:57:49;;;;;;;54.60;11.02;;;1.20;99.90;;;-0.51;100.00;101198.88;4951082;28;20025;-81
2022/02/11 06:00:16;;;;;;;62.65;10.93;;;1.20;99.90;;;-0.54;100.00;101193.69;4948979;28;20037;-81
2022/02/11 06:02:42;;;;;;;52.63;10.57;;;1.20;99.90;;;-0.53;100.00;101200.59;4944918;28;20631;-81
2022/02/11 06:05:16;;;;;;;41.70;10.20;;;1.20;99.90;;;-0.57;100.00;101206.59;4948253;28;20017;-82
2022/02/11 06:07:43;;;;;;;50.13;10.98;;;1.20;99.90;;;-0.57;100.00;101207.47;4923063;28;20041;-82
2022/02/11 06:10:09;;;;;;;48.72;10.25;;;1.20;99.90;;;-0.54;100.00;101206.59;4947364;28;20052;-81
2022/02/11 06:12:39;;;;;;;46.30;11.00;;;1.20;99.90;;;-0.52;100.00;101212.66;4918068;28;20022;-81
2022/02/11 06:15:08;;;;;;;61.90;11.65;;;1.20;99.90;;;-0.53;100.00;101221.28;4965724;28;20040;-82
2022/02/11 06:17:34;;;;;;;61.00;11.43;;;1.20;99.90;;;-0.54;100.00;101219.53;4967588;28;20028;-82
2022/02/11 06:20:00;;;;;;;54.95;11.55;;;1.20;99.90;;;-0.53;100.00;101226.47;4965814;28;20020;-82
2022/02/11 06:22:33;;;;;;;54.08;11.35;;;1.10;99.90;;;-0.58;100.00;101218.69;4959157;28;20818;-81
2022/02/11 06:24:59;;;;;;;62.75;12.25;;;1.10;99.90;;;-0.61;100.00;101213.47;4919833;28;20031;-83
2022/02/11 06:27:26;;;;;;;60.10;11.93;;;1.10;99.90;;;-0.65;100.00;101217.78;4949560;28;20018;-81
2022/02/11 06:29:52;;;;;;;57.50;12.00;;;1.10;99.90;;;-0.64;100.00;101222.06;5021495;28;20030;-82
2022/02/11 06:32:24;;;;;;;63.55;13.57;;;1.10;99.90;;;-0.63;100.00;101197.06;4923767;28;20037;-83
2022/02/11 06:34:54;;;;;;;61.92;12.45;;;1.10;99.90;;;-0.59;100.00;101229.00;4929276;28;20029;-81
2022/02/11 06:37:20;;;;;;;50.45;12.65;;;1.10;99.90;;;-0.54;100.00;101229.88;4921544;28;20018;-81
2022/02/11 06:39:46;;;;;;;66.38;11.93;;;1.10;99.90;;;-0.47;100.00;101236.88;4927595;28;20061;-83
2022/02/11 06:42:19;;;;;;;51.47;12.68;;;1.20;99.90;;;-0.38;100.00;101236.06;4926749;28;20091;-83
2022/02/11 06:44:45;;;;;;;54.80;12.68;;;1.30;99.90;;;-0.30;100.00;101232.66;4919177;28;20084;-83
2022/02/11 06:47:11;;;;;;;49.45;12.55;;;1.40;99.90;;;-0.21;100.00;101231.84;4934887;28;20037;-83
2022/02/11 06:49:37;;;;;;;52.63;12.65;;;1.40;99.90;;;-0.08;100.00;101235.38;4933797;28;20040;-82
2022/02/11 06:52:09;;;;;;;53.13;13.07;;;1.50;99.90;;;0.00;100.00;101241.47;4909446;28;20043;-82
2022/02/11 06:54:36;;;;;;;58.03;13.40;;;1.60;99.90;;;0.14;100.00;101244.09;4950908;28;20020;-82
2022/02/11 06:57:02;;;;;;;63.10;12.55;;;1.70;99.90;;;0.26;100.00;101256.22;4970340;28;20033;-81
2022/02/11 06:59:28;;;;;;;55.42;12.30;;;1.80;99.90;;;0.42;100.00;101252.00;4959926;28;20505;-81
2022/02/11 07:01:54;;;;;;;44.38;12.13;;;1.90;99.90;;;0.54;100.00;101252.00;4960647;28;20040;-82
2022/02/11 07:04:29;;;;;;;49.15;12.10;;;1.90;99.90;;;0.61;100.00;101246.88;4937958;28;20013;-82
2022/02/11 07:06:55;;;;;;;53.20;11.70;;;2.10;99.90;;;0.63;100.00;101254.66;4917525;28;20046;-82
2022/02/11 07:09:21;;;;;;;46.67;11.07;;;2.10;99.90;;;0.65;100.00;101254.63;4938837;28;20037;-82
2022/02/11 07:11:51;;;;;;;48.58;11.88;;;2.20;99.90;;;0.65;100.00;101260.72;4966016;28;20067;-81
2022/02/11 07:14:17;;;;;;;57.03;12.77;;;2.20;99.90;;;0.64;100.00;101253.78;4958321;28;20116;-82
2022/02/11 07:16:44;;;;;;;48.22;11.52;;;2.20;99.90;;;0.64;100.00;101261.56;4942918;28;20422;-81
2022/02/11 07:19:10;;;;;;;58.15;11.13;;;2.20;99.90;;;0.66;100.00;101254.66;4934035;28;20370;-82
2022/02/11 07:21:36;;;;;;;63.10;12.07;;;2.20;99.90;;;0.66;100.00;101257.25;4935819;28;20033;-81
2022/02/11 07:24:02;;;;;;;48.25;11.68;;;2.20;99.90;;;0.68;100.00;101259.84;4918369;28;20029;-82
2022/02/11 07:26:33;;;;;;;44.17;10.82;;;2.30;99.90;;;0.70;100.00;101250.34;4923378;28;20665;-82
2022/02/11 07:28:59;;;;;;;58.05;11.88;;;2.30;99.90;;;0.71;100.00;101268.47;4972914;28;20145;-82
2022/02/11 07:31:26;;;;;;;50.47;11.43;;;2.30;99.90;;;0.72;100.00;101266.78;4925246;28;20167;-82
2022/02/11 07:33:52;;;;;;;49.67;11.65;;;2.30;99.90;;;0.77;100.00;101265.03;4927067;28;20037;-82
2022/02/11 07:36:18;;;;;;;47.17;11.80;;;2.30;99.90;;;0.83;100.00;101265.06;4928987;28;20022;-82
2022/02/11 07:38:52;;;;;;;57.17;12.93;;;2.40;99.90;;;0.90;100.00;101277.16;4951635;28;20535;-82
2022/02/11 07:41:18;;;;;;;44.08;11.57;;;2.40;99.90;;;0.94;100.00;101280.63;4941361;28;20495;-82
2022/02/11 07:43:47;;;;;;;54.78;13.02;;;2.50;99.90;;;1.01;100.00;101279.78;4925002;28;20030;-82
2022/02/11 07:46:20;;;;;;;59.33;14.82;;;2.60;99.90;;;1.12;100.00;101284.97;4962837;28;20030;-82
2022/02/11 07:48:47;;;;;;;66.70;16.55;;;2.60;99.90;;;1.17;100.00;101283.28;4931138;28;20060;-82
2022/02/11 07:51:13;;;;;;;56.45;15.93;;;2.70;99.90;;;1.20;100.00;101284.13;4919790;28;20048;-82
2022/02/11 07:53:46;;;;;;;62.63;14.65;;;2.70;99.90;;;1.28;100.00;101291.06;4939310;28;20545;-83
2022/02/11 07:56:14;;;;;;;47.47;12.30;;;2.70;99.90;;;1.35;100.00;101298.84;4955248;28;20069;-82
2022/02/11 07:58:40;;;;;;;50.95;12.88;;;2.80;99.90;;;1.41;100.00;101298.84;4909462;28;20033;-81
2022/02/11 08:01:10;;;;;;;59.80;12.88;;;2.90;99.90;;;1.50;100.00;101310.97;4952949;28;20018;-81
2022/02/11 08:03:39;;;;;;;53.28;12.88;;;2.90;99.90;;;1.59;100.00;101310.09;4957930;28;20025;-81
2022/02/11 08:06:05;;;;;;;54.63;13.10;;;3.00;99.90;;;1.66;100.00;101306.63;4958585;28;20033;-82
2022/02/11 08:08:31;;;;;;;41.10;11.85;;;3.10;99.90;;;1.71;100.00;101314.44;4942375;28;20029;-82
2022/02/11 08:11:05;;;;;;;57.85;11.35;;;3.10;99.90;;;1.70;100.00;101316.13;4936926;28;20212;-81
2022/02/11 08:13:33;;;;;;;41.88;11.32;;;3.20;99.90;;;1.72;100.00;101317.00;4946620;28;20521;-82
2022/02/11 08:16:00;;;;;;;49.00;11.45;;;3.20;99.90;;;1.72;100.00;101322.19;4918390;28;20034;-80
2022/02/11 08:18:26;;;;;;;47.85;12.65;;;3.20;99.90;;;1.74;100.00;101330.84;5001104;28;20138;-81
2022/02/11 08:20:56;;;;;;;54.67;12.50;;;3.20;99.90;;;1.75;100.00;101322.22;4937667;28;20571;-82
2022/02/11 08:23:23;;;;;;;44.67;12.30;;;3.20;99.90;;;1.79;100.00;101333.44;4965193;28;20047;-81
2022/02/11 08:25:50;;;;;;;55.80;13.25;;;3.30;99.90;;;1.78;100.00;101327.38;4928006;28;20031;-80
2022/02/11 08:28:15;;;;;;;44.05;12.20;;;3.30;99.90;;;1.81;100.00;101332.59;4925880;28;20085;-82
2022/02/11 08:30:42;;;;;;;51.75;13.10;;;3.30;99.90;;;1.83;100.00;101330.84;4951657;28;20068;-82
2022/02/11 08:33:13;;;;;;;46.25;13.10;;;3.30;99.90;;;1.83;100.00;101336.03;4977192;28;20037;-83
2022/02/11 08:35:39;;;;;;;51.63;13.32;;;3.40;99.90;;;1.94;100.00;101342.94;4948705;28;20050;-82
2022/02/11 08:38:05;;;;;;;45.20;12.25;;;3.40;99.90;;;2.01;100.00;101339.50;4931829;28;20026;-80
2022/02/11 08:40:35;;;;;;;37.90;11.85;;;3.50;99.90;;;2.08;100.00;101349.00;4957156;28;20029;-80
2022/02/11 08:43:05;;;;;;;43.53;11.35;;;3.50;99.90;;;2.11;100.00;101353.31;4979954;28;20017;-81
2022/02/11 08:45:32;;;;;;;42.65;11.82;;;3.60;99.90;;;2.16;100.00;101355.06;4968318;28;20025;-80
2022/02/11 08:47:58;;;;;;;52.30;11.88;;;3.60;99.90;;;2.15;100.00;101353.31;4924611;28;20038;-81
2022/02/11 08:50:24;;;;;;;43.13;11.63;;;3.60;99.90;;;2.19;100.00;101368.03;4974059;28;20084;-81
2022/02/11 08:52:53;;;;;;;47.45;11.80;;;3.60;99.90;;;2.25;100.00;101365.44;4947478;28;20034;-80
2022/02/11 08:55:23;;;;;;;42.13;12.35;;;3.70;99.90;;;2.33;100.00;101364.53;4966565;28;20028;-81
2022/02/11 08:57:52;;;;;;;38.85;11.80;;;3.80;99.90;;;2.45;100.00;101352.38;4969554;28;20095;-81
2022/02/11 09:00:24;;;;;;;37.13;10.93;;;3.90;99.90;;;2.59;100.00;101365.34;4964774;28;20108;-80
2022/02/11 09:02:49;;;;;;;45.83;12.50;;;4.00;99.90;;;2.76;100.00;101365.25;4967740;28;21513;-79
2022/02/11 09:05:27;;;;;;;42.38;11.30;;;4.10;99.90;;;2.97;100.00;101376.44;4958042;28;20035;-79
2022/02/11 09:07:56;;;;;;;39.72;11.38;;;4.30;99.90;;;3.08;100.00;101372.91;4969983;28;20051;-79
2022/02/11 09:10:31;;;;;;;31.58;10.05;;;4.30;99.90;;;3.18;100.00;101373.72;4973173;28;20052;-79
2022/02/11 09:13:01;;;;;;;38.08;10.68;;;4.50;99.90;;;3.21;100.00;101388.47;4954373;28;20035;-80
2022/02/11 09:15:29;;;;;;;41.78;11.25;;;4.50;99.90;;;3.26;100.00;101389.28;4950506;28;20038;-79
2022/02/11 09:17:58;;;;;;;33.53;10.77;;;4.60;99.90;;;3.32;100.00;101389.25;4942220;28;20021;-79
2022/02/11 09:20:26;;;;;;;40.75;10.80;;;4.70;99.90;;;3.36;100.00;101400.53;4948467;28;20854;-79
2022/02/11 09:22:53;;;;;;;48.88;10.55;;;4.70;99.90;;;3.40;100.00;101403.09;4968375;28;20647;-78
2022/02/11 09:25:20;;;;;;;38.08;10.35;;;4.70;99.90;;;3.45;100.00;101408.28;4969580;28;20061;-78
2022/02/11 09:27:46;;;;;;;45.58;10.18;;;4.80;99.90;;;3.48;100.00;101411.72;4970231;28;20030;-79
2022/02/11 09:30:19;;;;;;;36.17;9.95;;;4.80;99.90;;;3.52;100.00;101417.78;4971486;28;20453;-78
2022/02/11 09:32:49;;;;;;;38.60;9.93;;;4.90;99.90;;;3.58;100.00;101416.88;4992379;28;20409;-77
2022/02/11 09:35:20;;;;;;;39.60;9.80;;;4.90;99.90;;;3.60;100.00;101425.53;4950865;28;20057;-78
2022/02/11 09:37:46;;;;;;;35.15;10.45;;;4.90;99.90;;;3.65;100.00;101419.44;4944261;28;20033;-77
2022/02/11 09:40:16;;;;;;;43.03;10.35;;;5.00;99.90;;;3.67;100.00;101425.50;4966443;28;20785;-78
2022/02/11 09:42:43;;;;;;;41.25;9.35;;;5.00;99.90;;;3.69;100.00;101425.47;4965899;28;20029;-78
2022/02/11 09:45:13;;;;;;;25.63;9.27;;;5.00;99.90;;;3.74;100.00;101434.13;4990546;28;20032;-78
2022/02/11 09:47:40;;;;;;;31.48;8.90;;;5.10;99.90;;;3.77;100.00;101433.25;4984445;28;20025;-78
2022/02/11 09:50:08;;;;;;;35.75;9.57;;;5.10;99.90;;;3.83;100.00;101439.28;4975052;28;20040;-77
2022/02/11 09:52:43;;;;;;;27.75;8.95;;;5.20;99.90;;;3.86;100.00;101433.16;4962863;28;20075;-78
2022/02/11 09:57:56;;;;;;;42.08;8.95;;;5.20;99.90;;;3.90;100.00;101450.50;4980246;28;20057;-77
2022/02/11 10:00:25;;;;;;;42.53;8.85;;;5.20;99.90;;;3.94;100.00;101447.00;4975558;28;20106;-78
2022/02/11 10:02:58;;;;;;;34.03;7.95;;;5.30;99.90;;;3.99;100.00;101455.66;4995486;28;20033;-78
2022/02/11 10:05:33;;;;;;;29.75;8.55;;;5.30;99.90;;;4.07;100.00;101453.84;4980184;28;20448;-77
2022/02/11 10:08:00;;;;;;;24.17;8.73;;;5.40;99.90;;;4.25;100.00;101455.44;4997961;28;20032;-77
2022/02/11 10:10:38;;;;;;;40.10;9.68;;;5.50;99.90;;;4.41;100.00;101456.16;4991173;28;20049;-77
2022/02/11 10:13:17;;;;;;;21.15;7.75;;;5.70;99.90;;;4.58;100.00;101461.22;4997506;28;20698;-77
2022/02/11 10:15:51;;;;;;;27.80;8.05;;;5.80;99.90;;;4.80;100.00;101463.63;5014338;28;20025;-77
2022/02/11 10:18:26;;;;;;;32.35;9.13;;;6.00;99.90;;;4.96;100.00;101467.75;4999791;28;20028;-76
2022/02/11 10:21:04;;;;;;;28.93;7.80;;;6.10;99.90;;;5.07;100.00;101470.25;5026923;28;20053;-77
2022/02/11 10:23:41;;;;;;;21.70;6.93;;;6.20;99.90;;;5.09;100.00;101481.53;4967254;28;20036;-78
2022/02/11 10:26:16;;;;;;;29.17;7.80;;;6.30;99.90;;;5.16;100.00;101484.94;4980971;28;20504;-77
2022/02/11 10:28:51;;;;;;;33.70;8.02;;;6.40;99.90;;;5.22;100.00;101490.94;4998415;28;20046;-78
2022/02/11 10:31:30;;;;;;;31.98;7.95;;;6.40;99.90;;;5.26;100.00;101492.63;4985204;28;20033;-78
2022/02/11 10:34:10;;;;;;;34.15;8.63;;;6.50;99.90;;;5.32;100.00;101489.09;4996721;28;20155;-78
2022/02/11 10:36:49;;;;;;;32.20;8.00;;;6.60;99.90;;;5.40;100.00;101484.66;4949644;28;20040;-78
2022/02/11 10:39:22;;;;;;;32.75;8.35;;;6.70;99.90;;;5.47;100.00;101491.50;4970734;28;20102;-78
2022/02/11 10:41:53;;;;;;;28.48;7.90;;;6.70;99.90;;;5.55;100.00;101492.28;4981506;28;20017;-77
2022/02/11 10:44:24;;;;;;;35.30;8.05;;;6.80;99.90;;;5.60;100.00;101493.97;4995381;28;20026;-77
2022/02/11 10:46:54;;;;;;;30.98;7.82;;;6.80;99.90;;;5.68;100.00;101497.31;5017991;28;20064;-78
2022/02/11 10:49:33;;;;;;;25.98;8.80;;;6.90;99.90;;;5.79;100.00;101502.38;4988733;28;20410;-78
2022/02/11 10:52:21;;;;;;;23.83;8.02;;;7.00;99.90;;;5.82;100.00;101510.19;4995349;28;20049;-78
2022/02/11 10:54:57;;;;;;;38.72;7.93;;;7.00;99.90;;;5.85;100.00;101516.25;4997535;28;20021;-78
2022/02/11 10:57:31;;;;;;;28.02;8.00;;;7.10;99.90;;;5.91;100.00;101507.44;5000660;28;20041;-77
2022/02/11 11:00:01;;;;;;;28.55;7.13;;;7.20;99.90;;;5.86;100.00;101506.66;4991708;28;20032;-78
2022/02/11 11:02:26;;;;;;;35.83;7.63;;;7.20;99.90;;;5.90;100.00;101514.44;4992597;28;20030;-78
2022/02/11 11:04:57;;;;;;;24.63;7.05;;;7.20;99.90;;;5.91;100.00;101508.31;4985010;28;20049;-78
2022/02/11 11:07:26;;;;;;;30.75;7.82;;;7.20;99.90;;;5.91;100.00;101507.44;4989170;28;20032;-78
2022/02/11 11:09:56;;;;;;;28.25;8.10;;;7.20;99.90;;;5.84;100.00;101513.66;4974660;28;20030;-78
2022/02/11 11:12:31;;;;;;;28.85;7.47;;;7.20;99.90;;;5.84;100.00;101511.03;4983282;28;20030;-78
2022/02/11 11:15:05;;;;;;;33.25;7.55;;;7.20;99.90;;;5.87;100.00;101511.00;4965428;28;20097;-78
2022/02/11 11:17:33;;;;;;;31.63;6.70;;;7.20;99.90;;;5.91;100.00;101521.38;4942001;28;20022;-78
2022/02/11 11:19:59;;;;;;;30.98;7.55;;;7.20;99.90;;;5.99;100.00;101529.16;4982644;28;25424;-77
2022/02/11 11:22:40;;;;;;;27.98;7.68;;;7.30;99.90;;;6.09;100.00;101522.00;4988931;28;20435;-78
2022/02/11 11:25:16;;;;;;;24.10;7.88;;;7.30;99.90;;;6.18;100.00;101529.75;4948934;28;20028;-78
2022/02/11 11:27:54;;;;;;;27.10;7.43;;;7.40;99.90;;;6.26;100.00;101529.59;4917537;28;20684;-77
2022/02/11 11:30:54;;;;;;;24.00;7.43;;;7.50;99.90;;;6.40;100.00;101539.88;4939265;28;20459;-78
2022/02/11 11:33:25;;;;;;;29.55;8.30;;;7.60;99.90;;;6.51;100.00;101540.53;4955730;28;20080;-77
2022/02/11 11:35:53;;;;;;;26.77;6.70;;;7.70;99.90;;;6.50;100.00;101552.78;4956445;28;20057;-77
2022/02/11 11:38:23;;;;;;;25.98;6.78;;;7.70;99.90;;;6.52;100.00;101558.84;4988186;28;20036;-78
2022/02/11 11:41:11;;;;;;;26.33;6.50;;;7.70;99.90;;;6.45;100.00;101556.34;4938190;28;20049;-78
2022/02/11 11:44:17;;;;;;;24.13;6.70;;;7.70;99.90;;;6.44;100.00;101560.72;4962681;28;20056;-78
2022/02/11 11:46:51;;;;;;;26.75;6.10;;;7.70;99.90;;;6.45;100.00;101567.66;4972433;28;20037;-77
2022/02/11 11:49:26;;;;;;;26.63;6.07;;;7.70;99.90;;;6.44;100.00;101575.56;4984746;28;20018;-77
2022/02/11 11:51:52;;;;;;;36.35;6.63;;;7.70;99.90;;;6.47;100.00;101578.09;4953310;28;20038;-78
2022/02/11 11:54:21;;;;;;;38.58;6.78;;;7.80;99.90;;;6.63;100.00;101589.19;4990949;28;20033;-78
2022/02/11 11:57:01;;;;;;;32.03;6.97;;;7.90;99.90;;;6.77;100.00;101582.81;4983397;28;20056;-78
2022/02/11 11:59:44;;;;;;;35.45;6.72;;;7.90;99.90;;;6.88;99.73;101580.03;4979354;28;20060;-77
2022/02/11 12:02:33;;;;;;;31.00;6.60;;;8.10;99.90;;;7.05;100.00;101591.97;4998428;28;20382;-79
2022/02/11 12:05:03;;;;;;;23.25;5.43;;;8.10;99.90;;;6.91;98.41;101598.31;4988799;28;20525;-78
2022/02/11 12:07:37;;;;;;;26.13;6.18;;;8.10;99.90;;;6.85;97.38;101627.22;4980366;28;20037;-79
2022/02/11 12:10:13;;;;;;;23.98;4.97;;;8.10;99.90;;;6.77;96.60;101623.84;4965250;28;20084;-77
2022/02/11 12:12:40;;;;;;;34.88;6.72;;;8.00;99.90;;;6.68;96.31;101624.88;4954613;28;20029;-78
2022/02/11 12:15:12;;;;;;;36.40;6.80;;;7.90;99.90;;;6.69;96.59;101634.44;4962805;28;20041;-78
2022/02/11 12:17:44;;;;;;;26.55;5.25;;;7.90;99.90;;;6.56;96.81;101638.13;4998439;28;20030;-77
2022/02/11 12:20:13;;;;;;;26.60;5.80;;;7.80;99.90;;;6.56;97.72;101646.84;4995147;28;20034;-78
2022/02/11 12:27:19;;;;;;;29.65;5.28;;;7.80;99.90;;;6.56;97.66;101648.59;4980131;28;20044;-78
2022/02/11 12:28:12;;;;;;;23.15;4.70;;;7.70;99.90;;;6.16;97.49;101667.50;4985062;28;20108;-77
2022/02/11 12:30:42;;;;;;;26.75;6.00;;;7.40;99.90;;;5.84;97.19;101670.47;4973443;28;20407;-77
2022/02/11 12:33:12;;;;;;;32.10;5.03;;;7.40;99.90;;;6.00;98.56;101668.56;4963263;28;20027;-78
2022/02/11 12:35:40;;;;;;;29.00;5.72;;;7.40;99.90;;;6.06;98.03;101666.72;4966347;28;20541;-78
2022/02/11 12:38:08;;;;;;;26.42;5.22;;;7.40;99.90;;;6.10;97.79;101670.19;4985001;28;20037;-78
2022/02/11 12:40:41;;;;;;;30.67;5.18;;;7.40;99.90;;;6.09;98.52;101668.44;4944129;28;20640;-78
2022/02/11 12:43:11;;;;;;;13.90;3.25;;;7.40;99.90;;;6.02;96.73;101664.19;4975559;28;20029;-77
2022/02/11 12:45:42;;;;;;;25.73;5.03;;;7.40;99.90;;;5.98;95.89;101649.41;4986249;28;20055;-78
2022/02/11 12:48:13;;;;;;;15.23;3.58;;;7.20;99.90;;;5.72;95.67;101633.16;4946490;28;20026;-78
2022/02/11 12:50:43;;;;;;;21.80;4.07;;;7.20;99.90;;;5.61;96.56;101602.78;4971818;28;20045;-78
2022/02/11 12:53:14;;;;;;;26.63;4.35;;;7.10;99.90;;;5.68;98.04;101625.34;4976900;28;20030;-78
2022/02/11 12:55:41;;;;;;;23.17;5.32;;;7.10;99.90;;;5.79;97.48;101687.94;5004209;28;20190;-78
2022/02/11 12:58:11;;;;;;;25.63;5.43;;;7.20;99.90;;;5.91;97.39;101693.03;4980082;28;20113;-78
2022/02/11 13:00:40;;;;;;;13.18;3.45;;;7.20;99.90;;;5.87;97.20;101700.03;4993032;28;20036;-78
2022/02/11 13:03:13;;;;;;;21.67;4.45;;;7.10;99.90;;;5.76;97.02;101712.38;4970045;28;20029;-77
2022/02/11 13:05:51;;;;;;;20.95;4.15;;;7.20;99.90;;;5.84;96.68;101707.06;4964998;28;20071;-77
2022/02/11 13:08:28;;;;;;;22.23;4.45;;;7.20;99.90;;;5.89;96.56;101698.28;4991638;28;20076;-78
2022/02/11 13:11:17;;;;;;;28.27;4.47;;;7.20;99.90;;;6.05;95.82;101700.75;4966204;28;20091;-78
2022/02/11 13:13:44;;;;;;;30.83;5.32;;;7.30;99.90;;;6.18;95.58;101696.22;4980045;28;20034;-78
2022/02/11 13:16:11;;;;;;;26.95;5.10;;;7.50;99.90;;;6.31;95.23;101705.66;4977271;28;20089;-78
2022/02/11 13:18:40;;;;;;;27.65;5.53;;;7.60;99.90;;;6.57;94.66;101710.53;5033853;28;20034;-78
2022/02/11 13:21:11;;;;;;;21.67;4.93;;;7.80;99.90;;;6.77;95.07;101718.94;4986123;28;20036;-77
2022/02/11 13:23:39;;;;;;;22.13;4.78;;;8.00;99.90;;;6.98;94.82;101709.91;4967298;28;20587;-78
2022/02/11 13:26:12;;;;;;;31.58;5.68;;;8.10;99.90;;;7.14;93.90;101715.75;4964699;28;20467;-78
2022/02/11 13:28:49;;;;;;;28.08;5.28;;;8.30;99.90;;;7.24;92.81;101715.63;4955590;28;20033;-78
2022/02/11 13:31:19;;;;;;;20.42;4.95;;;8.40;99.90;;;7.35;92.49;101719.78;5007259;28;20866;-78
2022/02/11 13:33:46;;;;;;;21.85;4.93;;;8.50;99.90;;;7.46;92.39;101721.34;5009126;28;20026;-78
2022/02/11 13:36:26;;;;;;;19.95;4.15;;;8.50;99.90;;;7.27;90.71;101718.16;4976552;28;20522;-78
2022/02/11 13:38:52;;;;;;;19.27;4.47;;;8.50;99.90;;;7.28;91.00;101715.53;4975325;28;20397;-78
2022/02/11 13:41:31;;;;;;;17.65;4.63;;;8.50;99.90;;;7.14;90.82;101720.13;4989476;28;20454;-78
2022/02/11 13:44:03;;;;;;;25.67;4.28;;;8.50;99.90;;;7.08;91.33;101725.47;4965590;28;20029;-78
2022/02/11 13:46:32;;;;;;;12.88;2.67;;;8.30;99.90;;;6.93;90.65;101729.19;4969006;28;20044;-78
2022/02/11 13:49:09;;;;;;;32.92;4.70;;;8.20;99.90;;;6.70;90.46;101743.50;4976608;28;20055;-79
2022/02/11 13:51:38;;;;;;;21.90;4.15;;;8.00;99.90;;;6.33;90.41;101743.13;4943076;28;22176;-78
2022/02/11 13:54:18;;;;;;;25.00;4.07;;;7.80;99.90;;;6.25;91.12;101744.97;4973795;28;20042;-78
2022/02/11 13:56:52;;;;;;;19.05;3.30;;;7.60;99.90;;;5.81;91.30;101760.25;4984781;28;20156;-78
2022/02/11 13:59:27;;;;;;;18.17;3.90;;;7.30;99.90;;;5.53;93.01;101760.50;4985774;28;20036;-78
2022/02/11 14:02:08;;;;;;;13.45;2.72;;;7.00;99.90;;;5.23;94.34;101771.22;5000359;28;20026;-77
2022/02/11 14:04:36;;;;;;;13.65;3.15;;;6.80;99.90;;;5.04;95.58;101770.50;4967412;28;21261;-78
2022/02/11 14:07:04;;;;;;;21.40;3.45;;;6.70;99.90;;;5.02;96.76;101785.28;4975135;28;20022;-78
2022/02/11 14:09:38;;;;;;;24.77;3.42;;;6.60;99.90;;;4.92;98.03;101768.81;4981556;28;20099;-78